Time;durP1;ratioP1;P1;durP2;ratioP2;P2;SDS_P1;SDS_P2;PMS_P1;PMS_P2;Temp;Humidity;BMP_temperature;BMP_pressure;BME280_temperature;BME280_humidity;BME280_pressure;Samples;Min_cycle;Max_cycle;Signal;HPM_P1;HPM_P2
2020/12/27 00:04:45;;;;;;;44.53;20.12;;;;;;;0.66;63.02;99497.13;251626;1133;114683;-79
2020/12/27 00:09:48;;;;;;;39.83;20.43;;;;;;;0.67;64.16;99489.23;251770;1134;114636;-83
2020/12/27 00:14:51;;;;;;;35.63;18.05;;;;;;;0.73;64.25;99480.43;251687;1134;114834;-79
2020/12/27 00:19:53;;;;;;;36.33;18.37;;;;;;;0.78;63.35;99485.59;251217;1134;114838;-81
2020/12/27 00:24:56;;;;;;;35.50;17.87;;;;;;;0.81;63.94;99477.69;250493;1133;114987;-80
2020/12/27 00:30:04;;;;;;;37.97;17.33;;;;;;;0.75;63.87;99469.91;250352;1134;114860;-76
2020/12/27 00:35:07;;;;;;;40.47;18.67;;;;;;;0.77;63.27;99462.91;248771;1134;114724;-83
2020/12/27 00:40:11;;;;;;;39.15;18.92;;;;;;;0.72;63.84;99462.14;251709;1133;114780;-86
2020/12/27 00:45:13;;;;;;;35.40;18.07;;;;;;;0.64;63.84;99468.33;251667;1134;115596;-86
2020/12/27 00:50:15;;;;;;;40.53;18.53;;;;;;;0.54;63.65;99458.02;251814;1134;115085;-85
2020/12/27 00:55:18;;;;;;;36.03;16.95;;;;;;;0.50;64.18;99438.87;251708;1135;115713;-81
2020/12/27 01:00:20;;;;;;;36.17;18.07;;;;;;;0.47;63.71;99446.77;251394;1134;115316;-82
2020/12/27 01:05:24;;;;;;;34.20;17.47;;;;;;;0.40;63.31;99440.75;249324;1134;114953;-81
2020/12/27 01:10:27;;;;;;;36.48;17.12;;;;;;;0.38;63.12;99445.16;250151;1134;115355;-80
2020/12/27 01:15:30;;;;;;;34.27;17.00;;;;;;;0.38;63.09;99420.75;251613;1135;114783;-80
2020/12/27 01:20:42;;;;;;;36.30;17.17;;;;;;;0.36;63.48;99420.75;251647;1133;114887;-81
2020/12/27 01:25:47;;;;;;;35.67;16.17;;;;;;;0.47;63.67;99415.34;251758;1133;115577;-80
2020/12/27 01:30:50;;;;;;;36.68;17.62;;;;;;;0.53;63.80;99401.31;251641;1135;114752;-81
2020/12/27 01:35:59;;;;;;;37.10;17.37;;;;;;;0.49;63.38;99397.88;248884;1134;114856;-81
2020/12/27 01:41:04;;;;;;;36.50;16.73;;;;;;;0.37;62.58;99387.58;250453;1134;115233;-80
2020/12/27 01:46:12;;;;;;;36.40;17.50;;;;;;;0.36;62.60;99383.23;250150;1134;114830;-80
2020/12/27 01:51:16;;;;;;;40.20;18.60;;;;;;;0.39;62.76;99375.34;248802;1134;115364;-81
2020/12/27 01:56:30;;;;;;;38.80;18.13;;;;;;;0.37;62.86;99377.97;249412;1132;114937;-80
2020/12/27 02:01:36;;;;;;;40.60;18.95;;;;;;;0.35;62.54;99368.44;251726;1134;114831;-79
2020/12/27 02:07:00;;;;;;;39.93;19.23;;;;;;;0.34;63.17;99364.95;247479;1134;114952;-84
2020/12/27 02:12:24;;;;;;;38.80;18.40;;;;;;;0.32;62.32;99358.01;251901;1134;114939;-84
2020/12/27 02:17:27;;;;;;;40.20;18.53;;;;;;;0.31;63.16;99361.52;251210;1134;114697;-84
2020/12/27 02:22:40;;;;;;;40.30;18.12;;;;;;;0.33;63.04;99350.11;251652;1134;114968;-83
2020/12/27 02:28:08;;;;;;;39.70;19.55;;;;;;;0.38;62.33;99344.83;251772;1135;114751;-83
2020/12/27 02:33:11;;;;;;;41.63;18.15;;;;;;;0.47;62.71;99347.28;251842;1135;114585;-84
2020/12/27 02:38:15;;;;;;;38.57;18.07;;;;;;;0.48;62.86;99349.03;251662;1133;114852;-84
2020/12/27 02:43:19;;;;;;;38.73;17.95;;;;;;;0.50;62.31;99336.75;251794;1135;114733;-83
2020/12/27 02:48:24;;;;;;;41.87;19.70;;;;;;;0.49;62.94;99319.33;251727;1134;114848;-84
2020/12/27 02:53:31;;;;;;;34.78;17.82;;;;;;;0.57;63.10;99314.81;251736;1135;114653;-84
2020/12/27 02:58:33;;;;;;;33.67;16.93;;;;;;;0.54;61.70;99291.30;251581;1134;115028;-83
2020/12/27 03:03:37;;;;;;;37.80;17.77;;;;;;;0.53;61.50;99286.10;250867;1132;115263;-84
2020/12/27 03:08:54;;;;;;;33.37;15.97;;;;;;;0.47;61.90;99279.20;251553;1134;114791;-84
2020/12/27 03:14:12;;;;;;;33.45;15.35;;;;;;;0.43;62.34;99282.77;251871;1133;114685;-79
2020/12/27 03:19:34;;;;;;;36.33;16.23;;;;;;;0.40;62.62;99277.59;251733;1133;114770;-79
2020/12/27 03:24:55;;;;;;;34.63;15.83;;;;;;;0.40;62.04;99267.12;251674;1134;114999;-79
2020/12/27 03:29:58;;;;;;;34.50;16.15;;;;;;;0.31;61.83;99264.68;251720;1134;115060;-83
2020/12/27 03:35:09;;;;;;;36.83;17.73;;;;;;;0.22;62.32;99256.08;251777;1134;116676;-83
2020/12/27 03:40:13;;;;;;;37.85;16.50;;;;;;;0.13;62.07;99248.37;251580;1134;115132;-83
2020/12/27 03:45:45;;;;;;;39.18;17.87;;;;;;;0.05;61.66;99238.94;251732;1133;115020;-83
2020/12/27 03:51:22;;;;;;;36.70;16.40;;;;;;;-0.01;62.26;99226.80;252016;1134;114847;-84
2020/12/27 03:56:26;;;;;;;33.48;17.65;;;;;;;-0.08;61.74;99222.56;252110;1134;114944;-84
2020/12/27 04:01:52;;;;;;;33.37;17.40;;;;;;;-0.16;61.84;99214.85;251315;1135;114984;-83
2020/12/27 04:06:55;;;;;;;38.00;16.87;;;;;;;-0.23;62.85;99202.77;251600;1134;115277;-83
2020/12/27 04:12:06;;;;;;;36.20;16.73;;;;;;;-0.32;63.01;99189.83;251494;1135;115347;-83
2020/12/27 04:17:10;;;;;;;36.60;18.27;;;;;;;-0.36;62.35;99180.31;247920;1134;116317;-84
2020/12/27 04:22:14;;;;;;;;;;;;;;;-0.38;62.61;99164.63;249330;1134;115166;-84
2020/12/27 04:27:24;;;;;;;36.60;16.27;;;;;;;-0.44;62.55;99154.30;251472;1134;102745;-84
2020/12/27 04:32:26;;;;;;;29.70;16.27;;;;;;;-0.52;61.79;99149.16;250909;1134;116103;-84
2020/12/27 04:37:38;;;;;;;36.23;18.05;;;;;;;-0.59;62.95;99141.45;251619;1133;115407;-81
2020/12/27 04:42:52;;;;;;;38.40;17.70;;;;;;;-0.56;62.70;99125.73;251643;1134;115279;-83
2020/12/27 04:48:12;;;;;;;35.03;17.27;;;;;;;-0.56;62.77;99118.74;249401;1134;116966;-82
2020/12/27 04:53:35;;;;;;;35.43;17.50;;;;;;;-0.59;63.51;99115.31;251664;1135;114974;-82
2020/12/27 04:58:39;;;;;;;33.37;16.07;;;;;;;-0.66;62.75;99114.55;250748;1134;114992;-83
2020/12/27 05:03:56;;;;;;;35.55;16.67;;;;;;;-0.69;62.17;99125.05;250355;1132;115270;-83
2020/12/27 05:09:03;;;;;;;33.90;16.73;;;;;;;-0.77;63.57;99116.47;251768;1133;115096;-82
2020/12/27 05:14:07;;;;;;;40.63;17.02;;;;;;;-0.79;62.25;99116.48;251713;1133;114973;-84
2020/12/27 05:19:16;;;;;;;34.30;15.90;;;;;;;-0.81;63.48;99099.13;251710;1135;115767;-86
2020/12/27 05:24:22;;;;;;;38.50;16.90;;;;;;;-0.78;64.00;99099.94;249508;1134;115475;-82
2020/12/27 05:29:39;;;;;;;36.75;16.50;;;;;;;-0.72;64.03;99094.59;251705;1134;115315;-79
2020/12/27 05:35:12;;;;;;;30.30;15.50;;;;;;;-0.70;62.50;99106.79;251390;1134;114973;-81
2020/12/27 05:40:37;;;;;;;34.75;14.95;;;;;;;-0.70;62.45;99096.34;251833;1134;115082;-81
2020/12/27 05:45:51;;;;;;;27.67;14.13;;;;;;;-0.67;62.67;99088.45;251662;1134;115220;-83
2020/12/27 05:51:00;;;;;;;;;;;;;;;-0.68;62.48;99090.17;251835;1134;115010;-83
2020/12/27 05:56:07;;;;;;;30.73;14.07;;;;;;;-0.74;62.71;99085.94;249033;1134;104463;-81
2020/12/27 06:01:23;;;;;;;27.97;13.20;;;;;;;-0.75;64.00;99086.83;248587;1134;115330;-82
2020/12/27 06:06:34;;;;;;;28.52;13.75;;;;;;;-0.77;63.47;99092.95;251549;1133;115274;-80
2020/12/27 06:11:47;;;;;;;28.73;13.73;;;;;;;-0.80;62.43;99095.61;251618;1134;114935;-80
2020/12/27 06:17:06;;;;;;;31.35;13.50;;;;;;;-0.83;63.94;99091.30;250615;1134;115561;-81
2020/12/27 06:22:32;;;;;;;27.37;12.98;;;;;;;-0.88;63.46;99093.13;250684;1133;115577;-80
2020/12/27 06:28:04;;;;;;;23.00;12.43;;;;;;;-0.93;62.56;99101.91;251390;1132;115007;-81
2020/12/27 06:33:36;;;;;;;30.17;13.38;;;;;;;-0.97;63.77;99093.25;251314;1134;115099;-81
2020/12/27 06:38:40;;;;;;;25.60;12.93;;;;;;;-0.98;62.62;99089.78;251650;1134;115738;-81
2020/12/27 06:43:48;;;;;;;28.30;13.40;;;;;;;-1.04;63.21;99082.03;251565;1134;115180;-81
2020/12/27 06:49:15;;;;;;;31.35;12.98;;;;;;;-1.09;63.53;99082.97;251888;1134;114848;-81
2020/12/27 06:54:42;;;;;;;28.93;12.77;;;;;;;-1.10;64.04;99076.89;251581;1133;116431;-81
2020/12/27 06:59:47;;;;;;;33.55;15.80;;;;;;;-1.11;63.26;99074.32;250758;1134;115267;-81
2020/12/27 07:04:54;;;;;;;30.37;15.80;;;;;;;-1.07;63.46;99062.94;251841;1134;115205;-81
2020/12/27 07:10:02;;;;;;;32.40;15.80;;;;;;;-1.05;63.34;99063.79;251713;1133;114948;-81
2020/12/27 07:15:09;;;;;;;35.98;15.65;;;;;;;-1.09;63.94;99051.64;251456;1135;115304;-81
2020/12/27 07:20:15;;;;;;;28.80;14.40;;;;;;;-1.06;63.09;99046.38;251789;1133;115182;-81
2020/12/27 07:25:22;;;;;;;33.65;17.00;;;;;;;-1.06;64.22;99049.84;250980;1134;115223;-80
2020/12/27 07:30:27;;;;;;;35.83;16.33;;;;;;;-1.01;64.44;99040.20;251524;1133;115204;-80
2020/12/27 07:35:29;;;;;;;40.03;16.87;;;;;;;-0.96;64.02;99033.14;251673;1134;115301;-81
2020/12/27 07:40:34;;;;;;;32.48;15.23;;;;;;;-0.85;64.11;99019.05;251740;1133;115269;-81
2020/12/27 07:45:37;;;;;;;31.07;15.10;;;;;;;-0.76;64.60;99016.30;251829;1134;114829;-85
2020/12/27 07:50:39;;;;;;;27.85;13.83;;;;;;;-0.72;64.03;99008.37;251864;1133;115172;-85
2020/12/27 07:55:41;;;;;;;27.97;13.13;;;;;;;-0.66;64.42;99002.19;251750;1133;116143;-85
2020/12/27 08:00:44;;;;;;;34.30;14.73;;;;;;;-0.52;64.59;98991.48;251720;1134;115479;-85
2020/12/27 08:05:47;;;;;;;27.20;13.58;;;;;;;-0.44;64.31;98987.00;251755;1134;115348;-85
2020/12/27 08:10:51;;;;;;;28.92;13.58;;;;;;;-0.39;63.82;98969.45;251688;1135;115030;-87
2020/12/27 08:15:54;;;;;;;24.30;12.58;;;;;;;-0.31;63.10;98970.16;252006;1134;115159;-88
2020/12/27 08:20:56;;;;;;;28.97;12.80;;;;;;;-0.23;64.24;98967.42;251704;1133;115618;-85
2020/12/27 08:25:59;;;;;;;31.93;13.80;;;;;;;-0.13;64.08;98975.95;251655;1134;115273;-86
2020/12/27 08:31:02;;;;;;;27.93;12.68;;;;;;;-0.06;63.92;98977.55;251823;1135;115115;-86
2020/12/27 08:36:07;;;;;;;30.60;14.07;;;;;;;0.03;64.07;98969.48;251849;1134;115315;-75
2020/12/27 08:41:10;;;;;;;29.77;14.98;;;;;;;0.12;63.29;98973.69;251825;1135;115218;-82
2020/12/27 08:46:13;;;;;;;35.53;16.23;;;;;;;0.26;64.32;98973.39;251934;1134;115025;-87
2020/12/27 08:51:18;;;;;;;35.78;16.23;;;;;;;0.36;63.85;98965.30;251820;1134;114928;-85
2020/12/27 08:56:20;;;;;;;;;;;;;;;0.46;63.02;98960.72;251925;1134;114973;-84
2020/12/27 09:01:29;;;;;;;32.60;14.97;;;;;;;0.56;62.99;98966.62;252065;1133;102530;-85
2020/12/27 09:06:31;;;;;;;31.00;15.77;;;;;;;0.72;63.58;98956.66;251522;1133;114829;-85
2020/12/27 09:11:45;;;;;;;30.80;15.30;;;;;;;0.84;63.45;98958.97;251562;1134;115744;-85
2020/12/27 09:16:49;;;;;;;31.25;15.35;;;;;;;0.93;62.70;98943.03;251702;1135;115045;-85
2020/12/27 09:21:52;;;;;;;34.65;17.37;;;;;;;1.03;62.84;98913.08;251754;1135;115188;-84
2020/12/27 09:27:08;;;;;;;30.83;15.07;;;;;;;1.12;62.92;98894.52;251733;1134;115478;-84
2020/12/27 09:32:13;;;;;;;36.20;16.52;;;;;;;1.26;63.11;98899.39;251717;1135;114909;-84
2020/12/27 09:37:17;;;;;;;30.17;13.13;;;;;;;1.40;63.10;98880.66;251671;1133;115736;-84
2020/12/27 09:42:32;;;;;;;29.25;12.80;;;;;;;1.54;62.84;98873.27;249969;1133;115883;-85
2020/12/27 09:47:34;;;;;;;25.12;12.03;;;;;;;1.73;62.44;98867.48;251793;1133;114781;-85
2020/12/27 09:52:47;;;;;;;22.00;11.17;;;;;;;1.91;62.26;98861.71;251651;1133;114867;-85
2020/12/27 09:57:49;;;;;;;24.82;11.88;;;;;;;2.15;62.31;98843.50;251776;1133;114782;-84
2020/12/27 10:02:52;;;;;;;25.03;12.60;;;;;;;2.42;62.27;98832.12;251741;1134;114637;-88
2020/12/27 10:07:54;;;;;;;20.47;12.30;;;;;;;2.57;61.95;98810.59;249744;1134;114985;-82
2020/12/27 10:12:57;;;;;;;25.20;12.37;;;;;;;2.71;61.85;98798.76;251528;1135;114873;-80
2020/12/27 10:17:59;;;;;;;24.60;12.87;;;;;;;2.78;61.37;98797.63;251758;1135;114765;-80
2020/12/27 10:23:01;;;;;;;20.57;12.15;;;;;;;2.88;61.26;98787.66;251812;1135;114779;-79
2020/12/27 10:28:03;;;;;;;25.33;13.57;;;;;;;3.02;61.35;98773.15;251647;1134;114566;-79
2020/12/27 10:33:06;;;;;;;26.20;14.10;;;;;;;3.22;61.04;98761.88;251732;1134;114917;-80
2020/12/27 10:38:08;;;;;;;25.95;13.38;;;;;;;3.44;61.17;98761.95;251525;1142;115274;-79
2020/12/27 10:43:11;;;;;;;24.27;12.80;;;;;;;3.58;60.61;98736.91;251686;1133;114801;-80
2020/12/27 10:48:13;;;;;;;23.80;12.60;;;;;;;3.62;60.01;98712.18;251413;1135;114769;-78
2020/12/27 10:53:15;;;;;;;24.07;12.90;;;;;;;3.54;59.81;98692.30;251639;1135;114738;-79
2020/12/27 10:58:20;;;;;;;23.60;12.10;;;;;;;3.46;59.83;98668.04;251585;1134;115062;-85
2020/12/27 11:03:23;;;;;;;22.73;12.45;;;;;;;3.43;59.69;98656.78;251627;1134;114858;-86
2020/12/27 11:08:25;;;;;;;28.83;14.70;;;;;;;3.37;59.45;98651.80;249495;1134;114946;-82
2020/12/27 11:13:28;;;;;;;35.40;17.00;;;;;;;3.37;59.73;98638.64;251553;1134;114782;-80
2020/12/27 11:18:30;;;;;;;30.23;16.10;;;;;;;3.30;59.55;98633.62;251798;1134;114917;-88
2020/12/27 11:23:33;;;;;;;31.40;16.00;;;;;;;3.25;59.66;98629.44;251599;1133;114832;-84
2020/12/27 11:28:35;;;;;;;32.83;15.70;;;;;;;3.21;59.89;98602.41;251432;1134;114635;-81
2020/12/27 11:33:38;;;;;;;27.97;15.03;;;;;;;3.20;59.96;98603.34;250610;1135;115063;-87
2020/12/27 11:38:40;;;;;;;30.50;15.68;;;;;;;3.22;60.02;98606.75;251716;1133;114867;-89
2020/12/27 11:43:43;;;;;;;30.63;15.37;;;;;;;3.27;60.09;98601.33;251634;1133;114914;-82
2020/12/27 11:48:46;;;;;;;31.90;17.03;;;;;;;3.37;60.21;98581.63;251802;1135;114670;-82
2020/12/27 11:53:49;;;;;;;31.17;15.15;;;;;;;3.46;60.13;98569.87;251729;1134;114955;-81
2020/12/27 11:58:52;;;;;;;29.67;15.13;;;;;;;3.54;59.97;98552.86;251869;1133;115083;-87
2020/12/27 12:03:54;;;;;;;24.70;12.73;;;;;;;3.61;59.50;98511.38;251504;1134;114751;-87
2020/12/27 12:08:57;;;;;;;20.43;11.60;;;;;;;3.60;59.14;98498.27;251661;1133;114830;-87
2020/12/27 12:13:59;;;;;;;24.40;11.43;;;;;;;3.60;59.21;98485.99;249625;1134;115161;-86
2020/12/27 12:19:03;;;;;;;19.12;11.18;;;;;;;3.68;59.23;98475.13;252009;1139;115952;-86
2020/12/27 12:24:06;;;;;;;24.30;11.73;;;;;;;3.75;58.56;98463.41;252112;1135;114716;-81
2020/12/27 12:29:08;;;;;;;21.80;12.10;;;;;;;3.74;58.53;98433.62;251866;1134;114730;-82
2020/12/27 12:34:11;;;;;;;19.13;10.07;;;;;;;3.70;58.03;98410.12;251540;1134;115299;-81
2020/12/27 12:39:14;;;;;;;18.30;10.03;;;;;;;3.73;58.16;98426.62;251766;1134;115835;-81
2020/12/27 12:44:16;;;;;;;18.20;11.08;;;;;;;3.89;58.53;98424.17;251812;1134;114695;-81
2020/12/27 12:49:19;;;;;;;17.00;10.40;;;;;;;4.13;58.91;98419.57;251798;1134;114941;-81
2020/12/27 12:54:21;;;;;;;18.37;10.27;;;;;;;4.30;58.11;98400.36;251884;1134;115078;-86
2020/12/27 12:59:23;;;;;;;18.63;9.93;;;;;;;4.39;57.98;98396.45;251715;1132;114907;-82
2020/12/27 13:04:28;;;;;;;20.25;10.63;;;;;;;4.50;58.05;98373.92;251563;1135;114576;-81
2020/12/27 13:09:31;;;;;;;19.98;10.98;;;;;;;4.47;58.32;98375.84;251948;1133;114825;-86
2020/12/27 13:14:33;;;;;;;20.20;10.60;;;;;;;4.44;57.42;98355.77;251705;1134;115730;-86
2020/12/27 13:19:35;;;;;;;24.90;13.03;;;;;;;4.37;57.45;98342.97;251987;1134;115002;-81
2020/12/27 13:24:38;;;;;;;22.30;12.97;;;;;;;4.23;56.91;98346.27;252047;1135;114822;-82
2020/12/27 13:29:41;;;;;;;24.60;13.17;;;;;;;4.14;57.23;98334.38;251682;1134;115218;-81
2020/12/27 13:34:43;;;;;;;23.20;13.10;;;;;;;4.09;57.50;98336.39;251892;1133;114766;-81
2020/12/27 13:39:46;;;;;;;22.70;12.60;;;;;;;3.98;57.58;98329.00;251263;1134;115061;-87
2020/12/27 13:44:49;;;;;;;21.63;11.50;;;;;;;3.91;58.13;98288.10;251819;1133;115112;-87
2020/12/27 13:49:51;;;;;;;21.10;11.67;;;;;;;3.90;57.71;98264.47;251475;1134;114945;-85
2020/12/27 13:54:54;;;;;;;23.17;12.13;;;;;;;3.88;58.34;98253.18;251708;1135;115044;-85
2020/12/27 13:59:56;;;;;;;21.43;11.47;;;;;;;3.83;57.22;98229.69;250132;1134;115636;-90
2020/12/27 14:05:03;;;;;;;21.87;10.90;;;;;;;3.73;57.75;98224.02;249703;1133;115597;-90
2020/12/27 14:10:06;;;;;;;20.33;10.60;;;;;;;3.62;57.84;98215.78;251634;1137;116194;-90
2020/12/27 14:15:08;;;;;;;18.30;10.30;;;;;;;3.52;57.97;98199.58;251199;1133;115328;-87
2020/12/27 14:20:15;;;;;;;18.75;10.05;;;;;;;3.44;57.86;98180.69;248821;1134;115368;-92
2020/12/27 14:25:17;;;;;;;18.03;10.07;;;;;;;3.38;57.66;98157.30;248413;1132;115302;-86
2020/12/27 14:30:20;;;;;;;22.20;9.97;;;;;;;3.34;58.06;98158.38;249082;1134;114921;-91
2020/12/27 14:35:23;;;;;;;19.10;10.00;;;;;;;3.29;57.90;98161.23;247919;1134;115829;-88
2020/12/27 14:40:28;;;;;;;22.60;11.18;;;;;;;3.22;57.83;98159.78;251652;1134;115564;-88
2020/12/27 14:45:34;;;;;;;16.40;9.17;;;;;;;3.12;58.06;98153.24;250486;1134;115481;-88
2020/12/27 14:50:37;;;;;;;21.33;10.63;;;;;;;3.00;57.88;98127.55;248937;1133;115086;-88
2020/12/27 14:55:39;;;;;;;21.57;11.93;;;;;;;2.88;58.11;98123.69;250254;1132;115202;-88
2020/12/27 15:00:42;;;;;;;23.13;12.67;;;;;;;2.79;58.35;98127.61;247494;1134;115162;-89
2020/12/27 15:05:44;;;;;;;21.80;11.70;;;;;;;2.71;58.35;98095.56;248334;1134;114751;-88
2020/12/27 15:10:47;;;;;;;23.77;11.83;;;;;;;2.68;58.46;98092.22;251608;1135;114843;-90
2020/12/27 15:15:50;;;;;;;22.30;11.22;;;;;;;2.64;58.39;98075.75;251803;1134;115263;-90
2020/12/27 15:20:53;;;;;;;23.00;11.60;;;;;;;2.62;58.36;98071.52;250940;1134;114855;-94
2020/12/27 15:26:00;;;;;;;24.17;10.40;;;;;;;2.60;58.28;98066.31;251579;1134;114737;-92
2020/12/27 15:31:03;;;;;;;20.53;10.27;;;;;;;2.62;58.04;98061.01;251628;1133;115064;-88
2020/12/27 15:36:07;;;;;;;25.33;11.03;;;;;;;2.64;58.49;98051.27;251365;1134;115072;-88
2020/12/27 15:41:09;;;;;;;23.12;9.93;;;;;;;2.68;58.48;98042.31;251488;1133;114924;-82
2020/12/27 15:46:12;;;;;;;19.63;9.47;;;;;;;2.75;58.61;98020.97;251786;1134;114725;-94
2020/12/27 15:51:14;;;;;;;20.07;8.73;;;;;;;2.81;58.39;98022.44;251606;1133;115134;-86
2020/12/27 15:56:21;;;;;;;16.90;8.67;;;;;;;2.79;58.00;98011.16;251124;1134;115276;-92
2020/12/27 16:01:24;;;;;;;17.77;9.37;;;;;;;2.75;58.12;98009.58;251722;1135;114632;-85
2020/12/27 16:06:27;;;;;;;17.02;8.90;;;;;;;2.73;57.91;97986.02;250727;1134;114985;-86
2020/12/27 16:11:29;;;;;;;17.33;8.50;;;;;;;2.69;57.83;97981.00;251917;1133;115548;-84
2020/12/27 16:16:33;;;;;;;15.67;8.00;;;;;;;2.67;57.97;97970.55;251824;1134;114761;-81
2020/12/27 16:21:35;;;;;;;20.57;8.90;;;;;;;2.66;58.04;97974.11;251676;1134;114629;-81
2020/12/27 16:26:38;;;;;;;18.93;8.80;;;;;;;2.68;58.02;97955.63;251896;1135;114640;-81
2020/12/27 16:31:41;;;;;;;22.20;11.50;;;;;;;2.65;58.01;97950.53;252011;1134;114822;-84
2020/12/27 16:36:43;;;;;;;17.40;8.63;;;;;;;2.67;58.05;97943.44;251909;1133;114849;-85
2020/12/27 16:41:45;;;;;;;16.33;8.80;;;;;;;2.64;57.83;97944.42;252005;1135;114691;-81
2020/12/27 16:46:48;;;;;;;18.67;9.10;;;;;;;2.59;58.42;97947.28;252085;1133;114756;-81
2020/12/27 16:51:52;;;;;;;18.57;8.37;;;;;;;2.58;58.18;97945.59;251797;1133;114727;-83
2020/12/27 16:56:54;;;;;;;18.60;8.45;;;;;;;2.56;58.11;97931.67;251985;1134;114837;-81
2020/12/27 17:01:56;;;;;;;15.20;8.33;;;;;;;2.56;58.03;97923.79;251828;1135;114980;-82
2020/12/27 17:06:59;;;;;;;17.00;8.60;;;;;;;2.56;58.02;97912.44;251627;1135;116682;-81
2020/12/27 17:12:02;;;;;;;16.73;8.63;;;;;;;2.57;58.17;97880.84;252011;1135;116361;-81
2020/12/27 17:17:05;;;;;;;18.00;9.80;;;;;;;2.59;58.26;97886.03;252105;1135;114938;-83
2020/12/27 17:22:07;;;;;;;19.85;10.13;;;;;;;2.58;58.31;97873.80;251801;1134;114898;-81
2020/12/27 17:27:10;;;;;;;23.40;10.87;;;;;;;2.54;58.55;97865.23;251899;1133;116213;-81
2020/12/27 17:32:12;;;;;;;21.67;10.70;;;;;;;2.51;58.89;97849.62;251887;1134;114888;-81
2020/12/27 17:37:14;;;;;;;19.83;10.87;;;;;;;2.49;58.99;97856.73;251997;1134;115161;-82
2020/12/27 17:42:17;;;;;;;19.87;10.70;;;;;;;2.47;58.94;97836.73;251932;1133;114975;-86
2020/12/27 17:47:20;;;;;;;22.20;11.27;;;;;;;2.49;59.00;97829.63;251823;1133;114971;-83
2020/12/27 17:52:22;;;;;;;19.80;10.37;;;;;;;2.53;59.33;97807.55;250156;1135;115597;-82
2020/12/27 17:57:25;;;;;;;24.37;11.83;;;;;;;2.57;59.12;97816.97;251780;1135;114854;-83
2020/12/27 18:02:27;;;;;;;21.33;10.40;;;;;;;2.55;59.35;97806.55;251643;1135;114833;-85
2020/12/27 18:07:30;;;;;;;24.13;11.33;;;;;;;2.53;59.28;97807.55;251631;1132;115151;-84
2020/12/27 18:12:32;;;;;;;20.73;11.03;;;;;;;2.51;59.28;97812.86;251092;1134;115914;-83
2020/12/27 18:17:35;;;;;;;21.33;11.07;;;;;;;2.53;59.54;97797.89;251822;1134;114859;-84
2020/12/27 18:22:38;;;;;;;23.17;11.40;;;;;;;2.59;59.62;97788.87;251742;1134;114791;-81
2020/12/27 18:27:40;;;;;;;22.67;11.57;;;;;;;2.63;59.68;97771.17;251699;1133;114604;-83
2020/12/27 18:32:43;;;;;;;21.00;11.17;;;;;;;2.58;59.82;97758.26;251824;1134;115242;-83
2020/12/27 18:37:45;;;;;;;24.05;11.65;;;;;;;2.58;59.74;97760.88;251594;1134;114998;-83
2020/12/27 18:42:48;;;;;;;22.83;12.03;;;;;;;2.56;59.81;97744.37;251810;1135;114923;-79
2020/12/27 18:47:50;;;;;;;27.43;13.40;;;;;;;2.57;60.25;97727.69;251898;1134;115540;-80
2020/12/27 18:52:53;;;;;;;24.53;11.97;;;;;;;2.57;59.80;97728.52;251633;1132;115782;-83
2020/12/27 18:57:55;;;;;;;27.00;12.57;;;;;;;2.67;60.23;97728.06;251698;1134;114788;-82
2020/12/27 19:02:57;;;;;;;29.25;12.65;;;;;;;2.69;60.08;97739.36;251646;1134;114898;-91
2020/12/27 19:08:00;;;;;;;24.70;12.57;;;;;;;2.73;60.27;97727.76;251789;1134;114918;-86
2020/12/27 19:13:02;;;;;;;25.50;11.80;;;;;;;2.75;60.19;97715.37;251677;1135;116158;-89
2020/12/27 19:18:05;;;;;;;21.40;11.70;;;;;;;2.76;60.00;97690.83;251496;1133;116910;-87
2020/12/27 19:23:07;;;;;;;20.27;11.67;;;;;;;2.73;60.12;97694.45;251644;1135;114830;-89
2020/12/27 19:28:09;;;;;;;20.52;10.88;;;;;;;2.84;60.41;97680.75;252009;1133;114820;-86
2020/12/27 19:33:12;;;;;;;21.47;10.63;;;;;;;2.93;60.62;97667.14;251942;1134;115320;-89
2020/12/27 19:38:14;;;;;;;18.53;10.57;;;;;;;2.98;60.47;97672.98;252081;1133;114906;-87
2020/12/27 19:43:16;;;;;;;21.07;11.13;;;;;;;3.02;60.55;97653.52;251181;1132;114638;-90
2020/12/27 19:48:19;;;;;;;20.37;10.13;;;;;;;3.06;60.65;97647.16;251113;1134;114524;-85
2020/12/27 19:53:21;;;;;;;21.90;11.05;;;;;;;3.13;60.45;97634.53;251927;1135;114927;-85
2020/12/27 19:58:27;;;;;;;20.00;10.73;;;;;;;3.16;60.48;97617.72;251864;1134;115769;-84
2020/12/27 20:03:29;;;;;;;22.40;11.10;;;;;;;3.21;60.94;97585.00;252002;1134;115022;-86
2020/12/27 20:08:31;;;;;;;21.37;10.77;;;;;;;3.14;60.56;97570.51;249134;1134;115107;-83
2020/12/27 20:13:34;;;;;;;20.10;10.17;;;;;;;3.04;60.42;97591.19;252133;1135;114993;-81
2020/12/27 20:18:36;;;;;;;21.30;10.00;;;;;;;2.94;60.44;97582.12;252012;1134;114866;-81
2020/12/27 20:23:38;;;;;;;23.00;10.80;;;;;;;2.88;60.70;97571.09;252080;1134;114968;-82
2020/12/27 20:28:41;;;;;;;21.40;10.27;;;;;;;2.83;60.93;97589.75;251655;1133;115274;-83
2020/12/27 20:33:45;;;;;;;21.13;11.33;;;;;;;2.82;60.95;97580.17;252018;1134;114971;-81
2020/12/27 20:38:48;;;;;;;23.80;11.13;;;;;;;2.81;61.32;97570.58;250115;1134;117348;-81
2020/12/27 20:43:50;;;;;;;19.15;10.65;;;;;;;2.82;61.27;97556.53;251722;1134;114985;-82
2020/12/27 20:48:53;;;;;;;24.10;11.50;;;;;;;2.83;61.55;97524.08;251762;1134;115121;-82
2020/12/27 20:53:55;;;;;;;23.10;11.27;;;;;;;2.86;62.07;97525.69;249852;1111;115095;-66
2020/12/27 20:58:57;;;;;;;23.30;11.57;;;;;;;2.89;61.89;97536.88;251797;1133;115290;-65
2020/12/27 21:04:00;;;;;;;23.97;11.87;;;;;;;2.94;61.88;97523.47;251563;1135;115057;-62
2020/12/27 21:09:02;;;;;;;26.37;12.03;;;;;;;3.01;62.06;97520.41;251801;1133;115058;-64
2020/12/27 21:14:04;;;;;;;21.87;11.07;;;;;;;3.10;61.91;97511.17;249628;1134;115089;-66
2020/12/27 21:19:09;;;;;;;23.35;10.63;;;;;;;3.14;61.78;97512.69;251784;1134;115092;-66
2020/12/27 21:24:12;;;;;;;20.67;10.83;;;;;;;3.15;62.41;97510.91;251723;1135;114711;-65
2020/12/27 21:29:14;;;;;;;23.20;11.87;;;;;;;3.17;61.99;97490.65;251711;1134;114992;-64
2020/12/27 21:34:21;;;;;;;23.92;11.15;;;;;;;3.21;62.61;97494.79;251575;1133;115335;-65
2020/12/27 21:39:24;;;;;;;21.80;10.60;;;;;;;3.27;62.53;97489.19;251926;1133;115227;-65
2020/12/27 21:44:27;;;;;;;19.57;9.67;;;;;;;3.32;62.64;97464.30;251888;1135;115845;-65
2020/12/27 21:49:29;;;;;;;18.43;10.00;;;;;;;3.40;62.75;97463.87;252063;1135;114906;-65
2020/12/27 21:54:32;;;;;;;18.97;10.00;;;;;;;3.49;63.08;97455.42;251819;1135;114849;-65
2020/12/27 21:59:34;;;;;;;22.30;11.05;;;;;;;3.65;63.32;97454.53;251873;1133;114609;-67
2020/12/27 22:04:36;;;;;;;24.02;12.07;;;;;;;3.79;63.31;97439.60;250841;1135;114867;-64
2020/12/27 22:09:39;;;;;;;23.47;10.97;;;;;;;3.90;62.89;97436.31;251922;1135;115375;-66
2020/12/27 22:14:41;;;;;;;20.70;10.67;;;;;;;3.95;63.54;97421.11;251856;1135;115545;-63
2020/12/27 22:19:44;;;;;;;23.87;12.07;;;;;;;3.94;62.76;97416.80;250701;1134;115299;-63
2020/12/27 22:24:46;;;;;;;22.52;11.08;;;;;;;4.05;62.88;97405.59;252016;1142;115644;-63
2020/12/27 22:29:48;;;;;;;19.90;11.00;;;;;;;4.16;62.67;97408.40;250747;1134;115112;-63
2020/12/27 22:34:51;;;;;;;22.27;11.40;;;;;;;4.25;62.97;97392.03;252028;1136;115601;-64
2020/12/27 22:39:55;;;;;;;20.67;10.87;;;;;;;4.40;63.74;97386.73;252015;1135;115528;-64
2020/12/27 22:44:59;;;;;;;27.37;11.70;;;;;;;4.52;62.88;97356.98;252138;1133;114974;-63
2020/12/27 22:50:02;;;;;;;20.90;10.50;;;;;;;4.63;63.17;97365.03;251815;1135;114998;-66
2020/12/27 22:55:04;;;;;;;20.50;11.20;;;;;;;4.70;62.50;97363.68;251935;1135;115100;-67
2020/12/27 23:00:08;;;;;;;24.93;12.40;;;;;;;4.69;62.41;97338.29;251852;1133;114934;-64
2020/12/27 23:05:10;;;;;;;29.63;13.83;;;;;;;4.67;61.82;97321.72;249452;1134;115077;-65
2020/12/27 23:10:14;;;;;;;25.37;13.33;;;;;;;4.60;62.33;97303.80;251657;1134;114876;-64